createdAt,value
2023-02-12T00:00:37.592Z,58.42
2023-02-12T00:01:37.567Z,58.42
2023-02-12T00:02:37.592Z,58.42
2023-02-12T00:03:37.641Z,58.53
2023-02-12T00:04:37.530Z,58.53
2023-02-12T00:05:37.543Z,58.42
2023-02-12T00:06:37.531Z,58.53
2023-02-12T00:07:40.492Z,58.53
2023-02-12T00:08:40.489Z,58.63
2023-02-12T00:09:37.460Z,58.53
2023-02-12T00:10:37.452Z,58.73
2023-02-12T00:11:37.482Z,58.53
2023-02-12T00:12:37.421Z,58.63
2023-02-12T00:13:37.406Z,58.53
2023-02-12T00:14:37.413Z,58.53
2023-02-12T00:15:37.401Z,58.63
2023-02-12T00:16:37.362Z,58.73
2023-02-12T00:17:37.373Z,58.73
2023-02-12T00:18:37.350Z,58.73
2023-02-12T00:19:37.370Z,58.73
2023-02-12T00:20:37.330Z,58.73
2023-02-12T00:21:37.293Z,58.84
2023-02-12T00:22:37.281Z,58.73
2023-02-12T00:23:37.273Z,58.73
2023-02-12T00:24:37.260Z,58.73
2023-02-12T00:25:37.271Z,58.73
2023-02-12T00:26:37.256Z,58.84
2023-02-12T00:27:40.211Z,58.73
2023-02-12T00:28:40.286Z,58.84
2023-02-12T00:29:37.236Z,58.94
2023-02-12T00:30:37.219Z,58.94
2023-02-12T00:31:37.169Z,59.17
2023-02-12T00:32:37.149Z,59.17
2023-02-12T00:33:37.124Z,59.28
2023-02-12T00:34:37.116Z,59.38
2023-02-12T00:35:37.150Z,59.28
2023-02-12T00:36:37.086Z,59.28
2023-02-12T00:37:37.067Z,59.28
2023-02-12T00:38:37.058Z,59.28
2023-02-12T00:39:37.068Z,59.17
2023-02-12T00:40:37.087Z,59.17
2023-02-12T00:41:37.021Z,59.17
2023-02-12T00:42:37.007Z,59.38
2023-02-12T00:43:36.994Z,59.07
2023-02-12T00:44:36.982Z,59.28
2023-02-12T00:45:36.961Z,59.17
2023-02-12T00:46:37.021Z,59.17
2023-02-12T00:47:39.932Z,59.17
2023-02-12T00:48:39.937Z,59.28
2023-02-12T00:49:36.912Z,59.17
2023-02-12T00:50:36.899Z,59.28
2023-02-12T00:51:36.879Z,59.17
2023-02-12T00:52:36.893Z,59.17
2023-02-12T00:53:36.852Z,59.17
2023-02-12T00:54:36.841Z,59.28
2023-02-12T00:55:36.820Z,59.17
2023-02-12T00:56:36.825Z,59.17
2023-02-12T00:57:36.851Z,58.97
2023-02-12T00:58:36.787Z,59.07
2023-02-12T00:59:36.776Z,59.17
2023-02-12T01:00:36.761Z,58.97
2023-02-12T01:01:36.763Z,58.97
2023-02-12T01:02:36.723Z,59.07
2023-02-12T01:03:36.749Z,59.07
2023-02-12T01:04:36.742Z,59.07
2023-02-12T01:05:36.694Z,58.97
2023-02-12T01:06:36.746Z,58.97
2023-02-12T01:07:39.656Z,59.17
2023-02-12T01:08:39.665Z,59.17
2023-02-12T01:09:36.639Z,59.07
2023-02-12T01:10:36.627Z,59.07
2023-02-12T01:11:36.609Z,59.07
2023-02-12T01:12:36.628Z,59.07
2023-02-12T01:13:36.577Z,59.07
2023-02-12T01:14:36.570Z,58.97
2023-02-12T01:15:36.585Z,58.97
2023-02-12T01:16:36.787Z,58.86
2023-02-12T01:17:36.581Z,59.07
2023-02-12T01:18:36.536Z,58.84
2023-02-12T01:19:36.493Z,58.84
2023-02-12T01:20:36.500Z,58.94
2023-02-12T01:21:36.476Z,58.94
2023-02-12T01:22:36.459Z,58.84
2023-02-12T01:23:36.472Z,58.73
2023-02-12T01:24:36.454Z,59.17
2023-02-12T01:25:36.413Z,58.94
2023-02-12T01:26:36.431Z,58.84
2023-02-12T01:27:39.385Z,58.94
2023-02-12T01:28:39.385Z,58.84
2023-02-12T01:29:36.385Z,58.84
2023-02-12T01:30:36.355Z,58.84
2023-02-12T01:31:36.457Z,58.84
2023-02-12T01:32:36.325Z,58.73
2023-02-12T01:33:36.343Z,58.94
2023-02-12T01:34:36.318Z,58.84
2023-02-12T01:35:36.305Z,58.73
2023-02-12T01:36:36.268Z,59.04
2023-02-12T01:37:36.246Z,58.84
2023-02-12T01:38:36.245Z,58.73
2023-02-12T01:39:36.246Z,58.73
2023-02-12T01:40:36.216Z,58.73
2023-02-12T01:41:36.194Z,58.84
2023-02-12T01:42:36.199Z,58.73
2023-02-12T01:43:36.168Z,58.63
2023-02-12T01:44:36.208Z,58.73
2023-02-12T01:45:36.139Z,58.63
2023-02-12T01:46:36.170Z,58.63
2023-02-12T01:47:39.113Z,58.63
2023-02-12T01:48:39.108Z,58.73
2023-02-12T01:49:36.094Z,58.63
2023-02-12T01:50:36.100Z,58.53
2023-02-12T01:51:36.057Z,58.63
2023-02-12T01:52:36.048Z,58.42
2023-02-12T01:53:36.035Z,58.42
2023-02-12T01:54:36.019Z,58.32
2023-02-12T01:55:36.038Z,58.42
2023-02-12T01:56:35.993Z,58.63
2023-02-12T01:57:35.972Z,58.63
2023-02-12T01:58:35.961Z,58.53
2023-02-12T01:59:35.942Z,58.42
2023-02-12T02:00:35.960Z,58.53
2023-02-12T02:01:36.038Z,58.42
2023-02-12T02:02:35.902Z,58.53
2023-02-12T02:03:35.954Z,58.53
2023-02-12T02:04:35.875Z,58.63
2023-02-12T02:05:35.888Z,58.63
2023-02-12T02:06:35.874Z,58.53
2023-02-12T02:07:38.835Z,58.53
2023-02-12T02:08:38.843Z,58.73
2023-02-12T02:09:35.815Z,58.53
2023-02-12T02:10:35.799Z,58.32
2023-02-12T02:11:35.803Z,58.63
2023-02-12T02:12:35.794Z,58.42
2023-02-12T02:13:35.753Z,58.42
2023-02-12T02:14:35.745Z,58.53
2023-02-12T02:15:35.728Z,58.32
2023-02-12T02:16:35.733Z,58.42
2023-02-12T02:17:35.729Z,58.42
2023-02-12T02:18:35.683Z,58.32
2023-02-12T02:19:35.673Z,58.32
2023-02-12T02:20:35.656Z,58.63
2023-02-12T02:21:35.647Z,58.53
2023-02-12T02:22:35.666Z,58.32
2023-02-12T02:23:35.612Z,58.32
2023-02-12T02:24:35.608Z,58.32
2023-02-12T02:25:35.583Z,58.42
2023-02-12T02:26:35.587Z,58.32
2023-02-12T02:27:38.667Z,58.32
2023-02-12T02:28:38.618Z,58.32
2023-02-12T02:29:35.534Z,58.42
2023-02-12T02:30:35.533Z,58.42
2023-02-12T02:31:35.647Z,58.42
2023-02-12T02:32:35.484Z,58.32
2023-02-12T02:33:35.526Z,58.42
2023-02-12T02:34:35.456Z,58.42
2023-02-12T02:35:35.444Z,58.32
2023-02-12T02:36:35.428Z,58.42
2023-02-12T02:37:35.414Z,58.42
2023-02-12T02:38:35.411Z,58.42
2023-02-12T02:39:35.412Z,58.32
2023-02-12T02:40:35.402Z,58.32
2023-02-12T02:41:35.365Z,58.42
2023-02-12T02:42:35.351Z,58.53
2023-02-12T02:43:35.340Z,58.42
2023-02-12T02:44:35.320Z,58.42
2023-02-12T02:45:35.344Z,58.42
2023-02-12T02:46:35.364Z,58.32
2023-02-12T02:47:38.279Z,58.32
2023-02-12T02:48:38.277Z,58.42
2023-02-12T02:49:35.247Z,58.32
2023-02-12T02:50:35.270Z,58.22
2023-02-12T02:51:35.218Z,58.32
2023-02-12T02:52:35.266Z,58.22
2023-02-12T02:53:35.205Z,58.32
2023-02-12T02:54:35.181Z,58.32
2023-02-12T02:55:35.172Z,58.32
2023-02-12T02:56:35.153Z,58.32
2023-02-12T02:57:35.139Z,58.32
2023-02-12T02:58:35.161Z,58.32
2023-02-12T02:59:35.118Z,58.32
2023-02-12T03:00:35.125Z,58.22
2023-02-12T03:01:35.083Z,58.22
2023-02-12T03:02:35.167Z,58.22
2023-02-12T03:03:35.053Z,58.22
2023-02-12T03:04:35.053Z,58.22
2023-02-12T03:05:35.034Z,58.29
2023-02-12T03:06:35.017Z,58.29
2023-02-12T03:07:38.039Z,58.29
2023-02-12T03:08:38.006Z,58.32
2023-02-12T03:09:34.973Z,58.32
2023-02-12T03:10:34.971Z,58.22
2023-02-12T03:11:34.963Z,58.29
2023-02-12T03:12:34.926Z,58.19
2023-02-12T03:13:34.949Z,58.32
2023-02-12T03:14:34.902Z,58.29
2023-02-12T03:15:34.893Z,58.29
2023-02-12T03:16:35.002Z,58.32
2023-02-12T03:17:34.886Z,58.19
2023-02-12T03:18:34.850Z,58.09
2023-02-12T03:19:34.844Z,58.09
2023-02-12T03:20:34.827Z,58.09
2023-02-12T03:21:34.807Z,58.19
2023-02-12T03:22:34.829Z,58.32
2023-02-12T03:23:34.814Z,58.19
2023-02-12T03:24:34.788Z,58.29
2023-02-12T03:25:34.758Z,58.29
2023-02-12T03:26:34.744Z,57.98
2023-02-12T03:27:37.729Z,58.11
2023-02-12T03:28:37.843Z,58.09
2023-02-12T03:29:34.750Z,58.09
2023-02-12T03:30:34.712Z,58.09
2023-02-12T03:31:34.705Z,58.09
2023-02-12T03:32:34.662Z,58.40
2023-02-12T03:33:34.650Z,58.09
2023-02-12T03:34:34.634Z,58.19
2023-02-12T03:35:34.649Z,58.19
2023-02-12T03:36:34.601Z,58.22
2023-02-12T03:37:34.593Z,58.09
2023-02-12T03:38:34.578Z,58.11
2023-02-12T03:39:34.564Z,58.22
2023-02-12T03:40:34.574Z,58.22
2023-02-12T03:41:34.535Z,58.29
2023-02-12T03:42:34.555Z,58.09
2023-02-12T03:43:34.514Z,58.22
2023-02-12T03:44:34.486Z,58.32
2023-02-12T03:45:34.564Z,58.32
2023-02-12T03:46:34.500Z,58.22
2023-02-12T03:47:37.460Z,58.22
2023-02-12T03:48:37.488Z,58.11
2023-02-12T03:49:34.431Z,58.22
2023-02-12T03:50:34.437Z,58.22
2023-02-12T03:51:34.434Z,58.22
2023-02-12T03:52:34.389Z,58.19
2023-02-12T03:53:34.376Z,58.29
2023-02-12T03:54:34.360Z,58.09
2023-02-12T03:55:34.365Z,58.29
2023-02-12T03:56:34.330Z,58.09
2023-02-12T03:57:34.317Z,58.19
2023-02-12T03:58:34.302Z,58.09
2023-02-12T03:59:34.294Z,58.19
2023-02-12T04:00:34.303Z,58.32
2023-02-12T04:01:34.423Z,58.22
2023-02-12T04:02:34.252Z,58.29
2023-02-12T04:03:34.227Z,58.29
2023-02-12T04:04:34.247Z,58.09
2023-02-12T04:05:34.227Z,58.19
2023-02-12T04:06:34.186Z,58.32
2023-02-12T04:07:37.175Z,58.19
2023-02-12T04:08:37.195Z,58.29
2023-02-12T04:09:34.170Z,58.40
2023-02-12T04:10:34.127Z,58.32
2023-02-12T04:11:34.116Z,58.42
2023-02-12T04:12:34.096Z,58.32
2023-02-12T04:13:34.122Z,58.32
2023-02-12T04:14:34.072Z,58.32
2023-02-12T04:15:34.068Z,58.42
2023-02-12T04:16:36.320Z,58.42
2023-02-12T04:17:34.039Z,58.32
2023-02-12T04:18:34.035Z,58.32
2023-02-12T04:19:34.038Z,58.32
2023-02-12T04:20:33.985Z,58.42
2023-02-12T04:21:34.012Z,58.32
2023-02-12T04:22:33.998Z,58.32
2023-02-12T04:23:33.966Z,58.22
2023-02-12T04:24:33.936Z,58.32
2023-02-12T04:25:33.927Z,58.32
2023-02-12T04:26:33.907Z,58.42
2023-02-12T04:27:36.952Z,58.32
2023-02-12T04:28:36.947Z,58.42
2023-02-12T04:29:33.875Z,58.42
2023-02-12T04:30:33.955Z,58.42
2023-02-12T04:31:33.989Z,58.32
2023-02-12T04:32:33.831Z,58.63
2023-02-12T04:33:33.882Z,58.42
2023-02-12T04:34:33.813Z,58.32
2023-02-12T04:35:33.795Z,58.53
2023-02-12T04:36:33.775Z,58.32
2023-02-12T04:37:33.763Z,58.42
2023-02-12T04:38:33.749Z,58.32
2023-02-12T04:39:33.764Z,58.32
2023-02-12T04:40:33.728Z,58.73
2023-02-12T04:41:33.719Z,58.53
2023-02-12T04:42:33.688Z,58.42
2023-02-12T04:43:36.316Z,58.63
2023-02-12T04:44:33.685Z,58.73
2023-02-12T04:45:33.658Z,58.63
2023-02-12T04:46:33.761Z,58.63
2023-02-12T04:47:36.629Z,58.53
2023-02-12T04:48:36.649Z,58.63
2023-02-12T04:49:33.600Z,58.73
2023-02-12T04:50:36.806Z,58.53
2023-02-12T04:51:33.573Z,58.53
2023-02-12T04:52:33.595Z,58.53
2023-02-12T04:53:33.541Z,58.42
2023-02-12T04:54:33.531Z,58.53
2023-02-12T04:55:33.519Z,58.42
2023-02-12T04:56:33.506Z,58.53
2023-02-12T04:57:33.488Z,58.63
2023-02-12T04:58:33.539Z,58.53
2023-02-12T04:59:33.468Z,58.53
2023-02-12T05:00:33.443Z,58.63
2023-02-12T05:01:33.478Z,58.53
2023-02-12T05:02:33.414Z,58.73
2023-02-12T05:03:33.417Z,58.53
2023-02-12T05:04:33.417Z,58.63
2023-02-12T05:05:33.375Z,58.73
2023-02-12T05:06:33.359Z,58.63
2023-02-12T05:07:36.355Z,58.63
2023-02-12T05:08:36.355Z,58.86
2023-02-12T05:09:33.357Z,58.76
2023-02-12T05:10:33.306Z,58.76
2023-02-12T05:11:33.308Z,58.65
2023-02-12T05:12:33.276Z,58.73
2023-02-12T05:13:33.282Z,58.63
2023-02-12T05:14:33.275Z,58.63
2023-02-12T05:15:33.286Z,58.73
2023-02-12T05:16:33.234Z,58.73
2023-02-12T05:17:33.249Z,58.63
2023-02-12T05:18:33.198Z,58.63
2023-02-12T05:19:33.186Z,58.63
2023-02-12T05:20:33.184Z,58.86
2023-02-12T05:21:33.157Z,58.65
2023-02-12T05:22:33.144Z,58.65
2023-02-12T05:23:33.160Z,58.97
2023-02-12T05:24:33.135Z,58.65
2023-02-12T05:25:33.098Z,58.76
2023-02-12T05:26:33.088Z,58.86
2023-02-12T05:27:36.074Z,58.86
2023-02-12T05:28:36.181Z,58.76
2023-02-12T05:29:33.049Z,58.76
2023-02-12T05:30:33.037Z,58.76
2023-02-12T05:31:33.194Z,58.76
2023-02-12T05:32:33.000Z,58.86
2023-02-12T05:33:33.003Z,58.97
2023-02-12T05:34:33.000Z,58.76
2023-02-12T05:35:33.002Z,58.65
2023-02-12T05:36:32.953Z,58.76
2023-02-12T05:37:32.940Z,58.65
2023-02-12T05:38:32.923Z,58.65
2023-02-12T05:39:32.911Z,58.65
2023-02-12T05:40:32.903Z,58.65
2023-02-12T05:41:32.932Z,58.65
2023-02-12T05:42:32.860Z,58.65
2023-02-12T05:43:32.855Z,58.65
2023-02-12T05:44:32.842Z,59.07
2023-02-12T05:45:32.825Z,58.86
2023-02-12T05:46:32.865Z,58.76
2023-02-12T05:47:35.836Z,58.86
2023-02-12T05:48:35.800Z,58.86
2023-02-12T05:49:32.773Z,58.86
2023-02-12T05:50:32.751Z,58.76
2023-02-12T05:51:32.748Z,58.65
2023-02-12T05:52:32.731Z,58.65
2023-02-12T05:53:32.772Z,58.76
2023-02-12T05:54:32.704Z,58.76
2023-02-12T05:55:32.683Z,58.76
2023-02-12T05:56:32.688Z,58.65
2023-02-12T05:57:32.657Z,58.65
2023-02-12T05:58:32.641Z,58.76
2023-02-12T05:59:32.657Z,58.76
2023-02-12T06:00:32.613Z,58.65
2023-02-12T06:01:32.626Z,58.65
2023-02-12T06:02:32.679Z,58.86
2023-02-12T06:03:32.582Z,58.76
2023-02-12T06:04:32.562Z,58.65
2023-02-12T06:05:32.543Z,58.76
2023-02-12T06:06:32.545Z,58.65
2023-02-12T06:07:35.584Z,58.97
2023-02-12T06:08:35.514Z,59.07
2023-02-12T06:09:32.493Z,58.76
2023-02-12T06:10:32.485Z,58.65
2023-02-12T06:11:32.462Z,58.65
2023-02-12T06:12:32.456Z,58.65
2023-02-12T06:13:32.455Z,58.65
2023-02-12T06:14:32.424Z,58.76
2023-02-12T06:15:32.406Z,58.76
2023-02-12T06:16:32.475Z,58.86
2023-02-12T06:17:32.416Z,58.86
2023-02-12T06:18:32.366Z,58.76
2023-02-12T06:19:32.356Z,58.76
2023-02-12T06:20:32.346Z,58.97
2023-02-12T06:21:32.330Z,58.76
2023-02-12T06:22:32.316Z,58.97
2023-02-12T06:23:32.326Z,58.76
2023-02-12T06:24:32.288Z,58.76
2023-02-12T06:25:32.271Z,58.76
2023-02-12T06:26:32.260Z,58.76
2023-02-12T06:27:35.240Z,58.86
2023-02-12T06:28:35.331Z,58.86
2023-02-12T06:29:32.218Z,58.76
2023-02-12T06:30:32.205Z,58.76
2023-02-12T06:31:32.360Z,58.97
2023-02-12T06:32:32.182Z,58.76
2023-02-12T06:33:32.160Z,58.76
2023-02-12T06:34:32.144Z,58.76
2023-02-12T06:35:32.132Z,58.76
2023-02-12T06:36:32.137Z,58.65
2023-02-12T06:37:32.165Z,58.86
2023-02-12T06:38:32.095Z,58.76
2023-02-12T06:39:32.085Z,58.76
2023-02-12T06:40:32.076Z,59.07
2023-02-12T06:41:32.068Z,58.65
2023-02-12T06:42:33.185Z,58.76
2023-02-12T06:43:32.059Z,58.76
2023-02-12T06:44:32.014Z,58.76
2023-02-12T06:45:32.008Z,58.76
2023-02-12T06:46:32.038Z,58.76
2023-02-12T06:47:34.968Z,58.76
2023-02-12T06:48:35.030Z,58.86
2023-02-12T06:49:31.958Z,58.65
2023-02-12T06:50:31.935Z,58.65
2023-02-12T06:51:38.927Z,58.76
2023-02-12T06:52:31.909Z,59.07
2023-02-12T06:53:31.889Z,58.76
2023-02-12T06:54:31.908Z,58.65
2023-02-12T06:55:31.867Z,58.86
2023-02-12T06:56:31.851Z,59.07
2023-02-12T06:57:31.886Z,58.76
2023-02-12T06:58:31.832Z,58.76
2023-02-12T06:59:31.810Z,58.65
2023-02-12T07:00:31.945Z,58.76
2023-02-12T07:01:31.781Z,58.76
2023-02-12T07:02:31.773Z,58.76
2023-02-12T07:03:31.804Z,58.76
2023-02-12T07:04:31.740Z,58.97
2023-02-12T07:05:31.722Z,58.76
2023-02-12T07:06:31.785Z,58.76
2023-02-12T07:07:34.712Z,58.76
2023-02-12T07:08:34.706Z,58.86
2023-02-12T07:09:31.683Z,58.76
2023-02-12T07:10:31.663Z,58.76
2023-02-12T07:11:31.658Z,58.86
2023-02-12T07:12:31.653Z,58.76
2023-02-12T07:13:31.635Z,58.76
2023-02-12T07:14:31.639Z,58.65
2023-02-12T07:15:31.627Z,58.86
2023-02-12T07:16:31.671Z,58.53
2023-02-12T07:17:31.568Z,58.73
2023-02-12T07:18:31.550Z,58.73
2023-02-12T07:19:31.541Z,58.63
2023-02-12T07:20:31.527Z,58.63
2023-02-12T07:21:31.535Z,58.73
2023-02-12T07:22:31.496Z,58.94
2023-02-12T07:23:31.491Z,58.63
2023-02-12T07:24:31.505Z,58.53
2023-02-12T07:25:31.460Z,58.94
2023-02-12T07:26:31.468Z,58.84
2023-02-12T07:27:34.425Z,58.63
2023-02-12T07:28:34.504Z,58.53
2023-02-12T07:29:31.406Z,58.53
2023-02-12T07:30:31.627Z,58.53
2023-02-12T07:31:31.490Z,58.53
2023-02-12T07:32:31.364Z,58.63
2023-02-12T07:33:31.340Z,58.53
2023-02-12T07:34:31.335Z,58.42
2023-02-12T07:35:31.336Z,58.32
2023-02-12T07:36:31.339Z,58.42
2023-02-12T07:37:31.284Z,58.42
2023-02-12T07:38:31.272Z,58.32
2023-02-12T07:39:31.272Z,58.32
2023-02-12T07:40:31.249Z,58.22
2023-02-12T07:41:31.241Z,58.22
2023-02-12T07:42:31.240Z,58.63
2023-02-12T07:43:31.210Z,58.11
2023-02-12T07:44:31.192Z,58.32
2023-02-12T07:45:31.286Z,58.22
2023-02-12T07:46:31.172Z,58.22
2023-02-12T07:47:34.338Z,58.84
2023-02-12T07:48:34.154Z,58.53
2023-02-12T07:49:31.172Z,58.11
2023-02-12T07:50:31.112Z,58.19
2023-02-12T07:51:31.092Z,58.29
2023-02-12T07:52:31.084Z,58.09
2023-02-12T07:53:31.114Z,58.09
2023-02-12T07:54:31.061Z,58.19
2023-02-12T07:55:31.042Z,58.40
2023-02-12T07:56:31.072Z,58.09
2023-02-12T07:57:31.020Z,58.19
2023-02-12T07:58:31.002Z,58.29
2023-02-12T07:59:31.021Z,57.98
2023-02-12T08:00:30.973Z,57.98
2023-02-12T08:01:30.967Z,57.78
2023-02-12T08:02:30.978Z,58.09
2023-02-12T08:03:30.988Z,57.88
2023-02-12T08:04:30.987Z,57.98
2023-02-12T08:05:30.899Z,58.09
2023-02-12T08:06:30.895Z,57.88
2023-02-12T08:07:33.889Z,58.60
2023-02-12T08:08:33.933Z,58.19
2023-02-12T08:09:30.968Z,58.60
2023-02-12T08:10:32.493Z,58.19
2023-02-12T08:11:30.819Z,58.19
2023-02-12T08:12:30.817Z,58.19
2023-02-12T08:13:30.789Z,58.40
2023-02-12T08:14:30.808Z,58.40
2023-02-12T08:15:30.758Z,58.09
2023-02-12T08:16:30.827Z,58.60
2023-02-12T08:17:30.741Z,58.09
2023-02-12T08:18:30.729Z,58.40
2023-02-12T08:19:30.751Z,58.29
2023-02-12T08:20:30.699Z,58.60
2023-02-12T08:21:30.680Z,58.19
2023-02-12T08:22:30.707Z,58.29
2023-02-12T08:23:30.660Z,58.40
2023-02-12T08:24:30.678Z,58.29
2023-02-12T08:25:30.684Z,58.09
2023-02-12T08:26:30.622Z,58.50
2023-02-12T08:27:33.602Z,58.29
2023-02-12T08:28:33.657Z,58.40
2023-02-12T08:29:30.578Z,58.29
2023-02-12T08:30:30.585Z,58.29
2023-02-12T08:31:30.574Z,57.96
2023-02-12T08:32:30.536Z,58.37
2023-02-12T08:33:30.518Z,58.26
2023-02-12T08:34:30.538Z,58.26
2023-02-12T08:35:30.493Z,57.96
2023-02-12T08:36:30.503Z,58.06
2023-02-12T08:37:30.464Z,58.06
2023-02-12T08:38:30.454Z,58.16
2023-02-12T08:39:30.524Z,58.16
2023-02-12T08:40:30.446Z,58.06
2023-02-12T08:41:30.413Z,58.06
2023-02-12T08:42:30.398Z,58.37
2023-02-12T08:43:30.385Z,57.96
2023-02-12T08:44:30.373Z,58.06
2023-02-12T08:45:30.416Z,58.16
2023-02-12T08:46:30.397Z,57.96
2023-02-12T08:47:33.338Z,58.06
2023-02-12T08:48:33.333Z,58.37
2023-02-12T08:49:30.298Z,57.96
2023-02-12T08:50:30.282Z,57.86
2023-02-12T08:51:30.304Z,57.93
2023-02-12T08:52:30.265Z,57.96
2023-02-12T08:53:30.233Z,57.82
2023-02-12T08:54:30.228Z,58.03
2023-02-12T08:55:30.215Z,58.03
2023-02-12T08:56:30.200Z,58.34
2023-02-12T08:57:30.224Z,58.24
2023-02-12T08:58:30.166Z,58.65
2023-02-12T08:59:30.153Z,58.89
2023-02-12T09:00:30.141Z,58.68
2023-02-12T09:01:30.225Z,59.19
2023-02-12T09:02:30.175Z,59.09
2023-02-12T09:03:30.096Z,59.19
2023-02-12T09:04:30.086Z,58.89
2023-02-12T09:05:30.077Z,58.78
2023-02-12T09:06:30.085Z,58.58
2023-02-12T09:07:33.066Z,59.09
2023-02-12T09:08:33.046Z,58.98
2023-02-12T09:09:30.017Z,59.09
2023-02-12T09:10:29.995Z,59.09
2023-02-12T09:11:30.007Z,59.30
2023-02-12T09:12:29.975Z,58.98
2023-02-12T09:13:29.957Z,58.75
2023-02-12T09:14:29.978Z,58.54
2023-02-12T09:15:29.942Z,58.86
2023-02-12T09:16:29.987Z,58.75
2023-02-12T09:17:29.906Z,58.34
2023-02-12T09:18:29.915Z,58.24
2023-02-12T09:19:29.879Z,58.11
2023-02-12T09:20:29.858Z,58.31
2023-02-12T09:21:29.846Z,58.01
2023-02-12T09:22:29.873Z,58.11
2023-02-12T09:23:29.823Z,58.21
2023-02-12T09:24:29.808Z,58.31
2023-02-12T09:25:29.799Z,58.42
2023-02-12T09:26:29.792Z,58.73
2023-02-12T09:27:32.789Z,59.24
2023-02-12T09:28:32.913Z,59.14
2023-02-12T09:29:29.750Z,59.45
2023-02-12T09:30:29.727Z,59.45
2023-02-12T09:31:29.837Z,59.45
2023-02-12T09:32:29.844Z,59.24
2023-02-12T09:33:29.681Z,59.34
2023-02-12T09:34:29.675Z,59.65
2023-02-12T09:35:29.655Z,59.45
2023-02-12T09:36:29.642Z,59.86
2023-02-12T09:37:29.648Z,59.75
2023-02-12T09:38:29.653Z,59.55
2023-02-12T09:39:29.638Z,59.65
2023-02-12T09:40:29.607Z,59.45
2023-02-12T09:41:29.581Z,59.75
2023-02-12T09:42:29.562Z,59.34
2023-02-12T09:43:29.544Z,59.96
2023-02-12T09:44:29.565Z,60.27
2023-02-12T09:45:29.523Z,60.17
2023-02-12T09:46:29.529Z,60.89
2023-02-12T09:47:32.511Z,60.58
2023-02-12T09:48:32.488Z,61.09
2023-02-12T09:49:29.486Z,60.78
2023-02-12T09:50:29.477Z,61.19
2023-02-12T09:51:29.435Z,61.91
2023-02-12T09:52:29.426Z,61.19
2023-02-12T09:53:29.413Z,61.61
2023-02-12T09:54:29.389Z,62.66
2023-02-12T09:55:29.408Z,61.94
2023-02-12T09:56:29.388Z,61.74
2023-02-12T09:57:29.363Z,61.33
2023-02-12T09:58:29.343Z,61.53
2023-02-12T09:59:29.324Z,61.22
2023-02-12T10:00:29.345Z,61.33
2023-02-12T10:01:29.320Z,60.91
2023-02-12T10:02:29.288Z,60.81
2023-02-12T10:03:29.274Z,60.81
2023-02-12T10:04:29.389Z,60.61
2023-02-12T10:05:29.276Z,60.71
2023-02-12T10:06:29.235Z,60.30
2023-02-12T10:07:32.218Z,60.50
2023-02-12T10:08:32.223Z,60.40
2023-02-12T10:09:29.193Z,59.89
2023-02-12T10:10:29.205Z,60.09
2023-02-12T10:11:29.166Z,59.89
2023-02-12T10:12:29.149Z,60.40
2023-02-12T10:13:29.172Z,59.68
2023-02-12T10:14:29.118Z,60.61
2023-02-12T10:15:29.171Z,60.50
2023-02-12T10:16:29.123Z,60.30
2023-02-12T10:17:29.084Z,60.50
2023-02-12T10:18:29.080Z,60.71
2023-02-12T10:19:29.053Z,60.50
2023-02-12T10:20:29.050Z,61.12
2023-02-12T10:21:29.081Z,60.91
2023-02-12T10:22:29.016Z,60.71
2023-02-12T10:23:28.993Z,60.61
2023-02-12T10:24:28.985Z,60.47
2023-02-12T10:25:28.991Z,60.61
2023-02-12T10:26:28.955Z,60.58
2023-02-12T10:27:31.985Z,60.47
2023-02-12T10:28:32.045Z,60.37
2023-02-12T10:29:28.946Z,60.27
2023-02-12T10:30:28.893Z,60.58
2023-02-12T10:31:30.361Z,60.06
2023-02-12T10:32:28.908Z,60.06
2023-02-12T10:33:28.871Z,60.03
2023-02-12T10:34:28.873Z,60.03
2023-02-12T10:35:28.833Z,60.24
2023-02-12T10:36:28.814Z,61.07
2023-02-12T10:37:28.810Z,60.55
2023-02-12T10:38:28.800Z,61.17
2023-02-12T10:39:28.830Z,61.07
2023-02-12T10:40:28.759Z,60.86
2023-02-12T10:41:28.746Z,61.47
2023-02-12T10:42:28.736Z,62.81
2023-02-12T10:43:28.711Z,62.63
2023-02-12T10:44:28.699Z,62.60
2023-02-12T10:45:28.710Z,62.84
2023-02-12T10:46:28.735Z,62.84
2023-02-12T10:47:31.651Z,62.95
2023-02-12T10:48:31.652Z,63.05
2023-02-12T10:49:28.632Z,62.40
2023-02-12T10:50:28.648Z,62.30
2023-02-12T10:51:28.604Z,62.51
2023-02-12T10:52:28.595Z,61.68
2023-02-12T10:53:28.604Z,63.12
2023-02-12T10:54:28.552Z,62.92
2023-02-12T10:55:28.560Z,62.92
2023-02-12T10:56:28.576Z,62.92
2023-02-12T10:57:28.524Z,62.71
2023-02-12T10:58:28.561Z,63.74
2023-02-12T10:59:28.493Z,63.53
2023-02-12T11:00:28.478Z,63.74
2023-02-12T11:01:28.533Z,64.15
2023-02-12T11:02:28.451Z,64.25
2023-02-12T11:03:28.435Z,64.56
2023-02-12T11:04:28.415Z,64.46
2023-02-12T11:05:28.427Z,64.36
2023-02-12T11:06:28.454Z,64.25
2023-02-12T11:07:31.377Z,63.94
2023-02-12T11:08:31.390Z,64.04
2023-02-12T11:09:28.360Z,63.74
2023-02-12T11:10:28.337Z,63.84
2023-02-12T11:11:28.334Z,63.20
2023-02-12T11:12:28.337Z,63.20
2023-02-12T11:13:28.296Z,63.20
2023-02-12T11:14:28.281Z,62.85
2023-02-12T11:15:28.291Z,63.17
2023-02-12T11:16:28.289Z,63.57
2023-02-12T11:17:28.429Z,63.37
2023-02-12T11:18:28.235Z,63.68
2023-02-12T11:19:28.228Z,63.57
2023-02-12T11:20:28.199Z,63.85
2023-02-12T11:21:28.216Z,65.53
2023-02-12T11:22:28.178Z,66.35
2023-02-12T11:23:28.222Z,66.14
2023-02-12T11:24:28.151Z,66.55
2023-02-12T11:25:28.139Z,67.17
2023-02-12T11:26:28.126Z,67.58
2023-02-12T11:27:31.109Z,68.51
2023-02-12T11:28:31.316Z,68.91
2023-02-12T11:29:28.090Z,68.61
2023-02-12T11:30:28.069Z,67.89
2023-02-12T11:31:28.179Z,67.48
2023-02-12T11:32:28.039Z,67.38
2023-02-12T11:33:28.060Z,67.07
2023-02-12T11:34:28.044Z,67.48
2023-02-12T11:35:28.012Z,66.96
2023-02-12T11:36:28.004Z,67.07
2023-02-12T11:37:27.981Z,67.07
2023-02-12T11:38:27.998Z,66.96
2023-02-12T11:39:27.985Z,67.17
2023-02-12T11:40:27.945Z,67.27
2023-02-12T11:41:27.941Z,66.96
2023-02-12T11:42:27.917Z,66.66
2023-02-12T11:43:27.905Z,66.76
2023-02-12T11:44:27.952Z,67.17
2023-02-12T11:45:27.878Z,67.58
2023-02-12T11:46:28.038Z,67.79
2023-02-12T11:47:30.865Z,68.51
2023-02-12T11:48:30.861Z,69.23
2023-02-12T11:49:27.833Z,69.02
2023-02-12T11:50:27.851Z,69.56
2023-02-12T11:51:27.818Z,68.54
2023-02-12T11:52:27.791Z,67.68
2023-02-12T11:53:27.782Z,67.27
2023-02-12T11:54:27.788Z,66.55
2023-02-12T11:55:27.781Z,66.76
2023-02-12T11:56:27.744Z,66.55
2023-02-12T11:57:27.731Z,66.55
2023-02-12T11:58:27.711Z,66.25
2023-02-12T11:59:27.703Z,66.25
2023-02-12T12:00:27.740Z,66.96
2023-02-12T12:01:27.685Z,66.35
2023-02-12T12:02:27.656Z,65.94
2023-02-12T12:03:27.692Z,66.76
2023-02-12T12:04:27.634Z,67.17
2023-02-12T12:05:27.620Z,67.07
2023-02-12T12:06:27.661Z,67.38
2023-02-12T12:07:30.594Z,67.89
2023-02-12T12:08:30.606Z,67.27
2023-02-12T12:09:27.593Z,67.27
2023-02-12T12:10:27.554Z,67.68
2023-02-12T12:11:27.542Z,67.99
2023-02-12T12:12:27.552Z,67.79
2023-02-12T12:13:27.512Z,67.48
2023-02-12T12:14:27.493Z,67.27
2023-02-12T12:15:27.484Z,67.58
2023-02-12T12:16:27.610Z,67.48
2023-02-12T12:17:27.487Z,67.48
2023-02-12T12:18:27.444Z,67.27
2023-02-12T12:19:29.103Z,67.17
2023-02-12T12:20:27.414Z,66.66
2023-02-12T12:21:27.459Z,67.27
2023-02-12T12:22:27.434Z,66.86
2023-02-12T12:23:27.385Z,66.55
2023-02-12T12:24:27.368Z,66.45
2023-02-12T12:25:27.366Z,66.55
2023-02-12T12:26:27.336Z,66.04
2023-02-12T12:27:30.379Z,66.79
2023-02-12T12:28:30.406Z,66.17
2023-02-12T12:29:27.339Z,68.23
2023-02-12T12:30:27.305Z,67.20
2023-02-12T12:31:27.330Z,66.38
2023-02-12T12:32:27.257Z,65.86
2023-02-12T12:33:27.297Z,65.22
2023-02-12T12:34:27.242Z,64.60
2023-02-12T12:35:27.226Z,64.81
2023-02-12T12:36:27.208Z,64.81
2023-02-12T12:37:27.221Z,64.91
2023-02-12T12:38:27.184Z,65.01
2023-02-12T12:39:27.207Z,64.70
2023-02-12T12:40:27.160Z,65.42
2023-02-12T12:41:27.158Z,65.94
2023-02-12T12:42:28.393Z,66.66
2023-02-12T12:43:27.124Z,66.66
2023-02-12T12:44:27.135Z,66.14
2023-02-12T12:45:27.092Z,64.91
2023-02-12T12:46:27.088Z,64.60
2023-02-12T12:47:30.062Z,64.09
2023-02-12T12:48:30.063Z,63.89
2023-02-12T12:49:28.662Z,64.81
2023-02-12T12:50:27.025Z,64.94
2023-02-12T12:51:27.027Z,64.53
2023-02-12T12:52:34.006Z,64.22